createdAt,value
2023-02-18T00:01:33.458Z,7.70
2023-02-18T00:04:01.313Z,7.70
2023-02-18T00:06:32.795Z,7.60
2023-02-18T00:09:02.530Z,7.60
2023-02-18T00:11:33.941Z,7.60
2023-02-18T00:14:04.374Z,7.60
2023-02-18T00:16:32.382Z,7.50
2023-02-18T00:19:03.470Z,7.50
2023-02-18T00:21:32.308Z,7.60
2023-02-18T00:23:59.953Z,7.50
2023-02-18T00:26:28.025Z,7.60
2023-02-18T00:28:55.879Z,7.50
2023-02-18T00:31:28.794Z,7.50
2023-02-18T00:33:57.642Z,7.50
2023-02-18T00:36:26.500Z,7.40
2023-02-18T00:39:00.373Z,7.40
2023-02-18T00:41:29.532Z,7.40
2023-02-18T00:43:57.107Z,7.30
2023-02-18T00:46:26.044Z,7.30
2023-02-18T00:48:53.051Z,7.30
2023-02-18T00:51:20.909Z,7.30
2023-02-18T00:53:47.934Z,7.30
2023-02-18T00:56:15.445Z,7.20
2023-02-18T00:58:43.176Z,7.30
2023-02-18T01:01:11.874Z,7.30
2023-02-18T01:03:41.176Z,7.30
2023-02-18T01:06:09.858Z,7.20
2023-02-18T01:08:38.557Z,7.30
2023-02-18T01:11:08.283Z,7.30
2023-02-18T01:13:36.097Z,7.20
2023-02-18T01:16:03.293Z,7.40
2023-02-18T01:18:30.845Z,7.30
2023-02-18T01:20:58.216Z,7.40
2023-02-18T01:23:25.624Z,7.20
2023-02-18T01:25:54.051Z,7.30
2023-02-18T01:28:25.212Z,7.30
2023-02-18T01:30:54.607Z,7.20
2023-02-18T01:33:22.272Z,7.20
2023-02-18T01:35:49.852Z,7.30
2023-02-18T01:38:17.006Z,7.30
2023-02-18T01:40:52.383Z,7.30
2023-02-18T01:43:21.928Z,7.30
2023-02-18T01:46:13.830Z,7.30
2023-02-18T01:48:46.527Z,7.20
2023-02-18T01:51:35.894Z,7.20
2023-02-18T01:54:16.946Z,7.20
2023-02-18T01:57:14.100Z,7.10
2023-02-18T01:59:57.894Z,7.20
2023-02-18T02:02:30.001Z,7.10
2023-02-18T02:04:58.239Z,7.00
2023-02-18T02:07:28.048Z,7.00
2023-02-18T02:09:59.321Z,7.10
2023-02-18T02:13:00.404Z,7.00
2023-02-18T02:15:30.344Z,6.90
2023-02-18T02:18:38.739Z,7.00
2023-02-18T02:21:27.387Z,7.00
2023-02-18T02:24:12.304Z,7.00
2023-02-18T02:27:01.529Z,6.90
2023-02-18T02:30:07.985Z,7.00
2023-02-18T02:33:21.979Z,6.90
2023-02-18T02:36:03.745Z,6.90
2023-02-18T02:39:14.819Z,6.80
2023-02-18T02:41:54.891Z,6.80
2023-02-18T02:44:47.114Z,6.80
2023-02-18T02:47:49.838Z,6.80
2023-02-18T02:50:47.317Z,6.80
2023-02-18T02:53:22.344Z,6.80
2023-02-18T02:55:49.617Z,6.70
2023-02-18T02:58:19.584Z,6.80
2023-02-18T03:01:15.522Z,6.80
2023-02-18T03:04:03.805Z,6.80
2023-02-18T03:06:56.570Z,6.70
2023-02-18T03:10:03.616Z,6.60
2023-02-18T03:12:47.192Z,6.80
2023-02-18T03:16:01.681Z,6.70
2023-02-18T03:18:39.743Z,6.70
2023-02-18T03:21:29.502Z,6.70
2023-02-18T03:24:17.056Z,6.70
2023-02-18T03:26:54.509Z,6.60
2023-02-18T03:29:22.914Z,6.60
2023-02-18T03:32:00.465Z,6.70
2023-02-18T03:34:34.310Z,6.60
2023-02-18T03:37:02.742Z,6.60
2023-02-18T03:39:35.294Z,6.60
2023-02-18T03:42:02.319Z,6.70
2023-02-18T03:44:31.753Z,6.70
2023-02-18T03:46:58.878Z,6.60
2023-02-18T03:49:25.922Z,6.60
2023-02-18T03:51:52.900Z,6.60
2023-02-18T03:54:20.432Z,6.50
2023-02-18T03:56:47.340Z,6.50
2023-02-18T03:59:14.443Z,6.50
2023-02-18T04:01:41.866Z,6.50
2023-02-18T04:04:09.108Z,6.50
2023-02-18T04:06:36.286Z,6.40
2023-02-18T04:09:08.870Z,6.50
2023-02-18T04:11:39.204Z,6.40
2023-02-18T04:14:07.567Z,6.50
2023-02-18T04:16:34.566Z,6.50
2023-02-18T04:19:01.567Z,6.30
2023-02-18T04:21:28.817Z,6.30
2023-02-18T04:23:55.837Z,6.40
2023-02-18T04:26:23.114Z,6.20
2023-02-18T04:28:50.000Z,6.20
2023-02-18T04:31:17.379Z,6.20
2023-02-18T04:33:44.579Z,6.20
2023-02-18T04:36:11.630Z,6.20
2023-02-18T04:38:38.771Z,6.20
2023-02-18T04:41:05.938Z,6.20
2023-02-18T04:43:33.076Z,6.20
2023-02-18T04:46:00.203Z,6.20
2023-02-18T10:09:41.950Z,6.10
2023-02-18T10:12:19.999Z,6.90
2023-02-18T10:14:56.269Z,7.10
2023-02-18T10:17:27.557Z,7.20
2023-02-18T10:19:56.713Z,7.20
2023-02-18T10:22:26.794Z,7.30
2023-02-18T10:25:01.127Z,7.20
2023-02-18T10:27:35.089Z,7.20
2023-02-18T10:30:47.235Z,7.30
2023-02-18T10:33:41.579Z,7.30
2023-02-18T10:36:44.274Z,7.20
2023-02-18T10:39:38.224Z,7.30
2023-02-18T10:42:26.028Z,7.20
2023-02-18T10:45:26.522Z,7.30
2023-02-18T10:48:07.524Z,7.30
2023-02-18T10:50:42.792Z,7.40
2023-02-18T10:53:32.601Z,7.50
2023-02-18T10:55:59.517Z,7.60
2023-02-18T10:58:41.958Z,7.60
2023-02-18T11:01:21.000Z,7.50
2023-02-18T11:04:04.818Z,7.50
2023-02-18T11:06:42.094Z,7.50
2023-02-18T11:09:28.895Z,7.50
2023-02-18T11:12:08.816Z,7.70
2023-02-18T11:15:24.397Z,7.70
2023-02-18T11:17:57.596Z,7.80
2023-02-18T11:20:24.510Z,7.80
2023-02-18T11:22:56.764Z,8.00
2023-02-18T11:26:04.571Z,8.10
2023-02-18T11:28:36.016Z,8.00
2023-02-18T11:31:05.255Z,8.10
2023-02-18T11:33:44.444Z,8.10
2023-02-18T11:36:35.629Z,7.80
2023-02-18T11:39:19.375Z,7.90
2023-02-18T11:41:59.138Z,7.80
2023-02-18T11:44:55.381Z,7.90
2023-02-18T11:47:32.619Z,8.10
2023-02-18T11:50:20.753Z,7.80
2023-02-18T11:52:51.269Z,7.90
2023-02-18T11:55:23.242Z,7.80
2023-02-18T11:58:03.709Z,7.80
2023-02-18T12:00:42.880Z,7.80
2023-02-18T12:03:52.765Z,7.80
2023-02-18T12:06:33.922Z,7.80
2023-02-18T12:09:35.220Z,7.80
2023-02-18T12:12:14.528Z,7.80
2023-02-18T12:14:41.466Z,7.90
2023-02-18T12:17:33.384Z,7.90
2023-02-18T12:20:38.392Z,7.80
2023-02-18T12:23:17.865Z,7.70
2023-02-18T12:26:12.779Z,7.70
2023-02-18T12:29:10.262Z,7.60
2023-02-18T12:32:21.072Z,7.70
2023-02-18T12:35:16.357Z,7.70
2023-02-18T12:38:04.070Z,7.60
2023-02-18T12:41:06.129Z,7.70
2023-02-18T12:44:26.177Z,7.60
2023-02-18T12:47:31.268Z,7.50
2023-02-18T12:50:15.196Z,7.60
2023-02-18T12:52:56.364Z,7.60
2023-02-18T12:55:59.528Z,7.50
2023-02-18T12:58:38.206Z,7.60
2023-02-18T13:01:21.903Z,7.60
2023-02-18T13:04:48.804Z,7.60
2023-02-18T13:07:40.179Z,7.60
2023-02-18T13:10:39.590Z,7.60
2023-02-18T13:13:20.541Z,7.50
2023-02-18T13:16:13.919Z,7.50
2023-02-18T13:19:25.213Z,7.70
2023-02-18T13:21:58.483Z,7.80
2023-02-18T13:24:38.593Z,7.70
2023-02-18T13:27:58.698Z,7.80
2023-02-18T13:30:38.690Z,7.60
2023-02-18T13:33:17.961Z,7.70
2023-02-18T13:36:31.680Z,7.80
2023-02-18T13:39:05.536Z,7.80
2023-02-18T13:41:42.523Z,7.70
2023-02-18T13:44:30.063Z,7.70
2023-02-18T13:46:59.386Z,7.60
2023-02-18T13:49:39.954Z,7.50
2023-02-18T13:52:16.086Z,7.50
2023-02-18T13:54:46.666Z,7.60
2023-02-18T13:57:25.769Z,7.50
2023-02-18T14:00:01.981Z,7.40
2023-02-18T14:02:36.596Z,7.50
2023-02-18T14:05:09.490Z,7.40
2023-02-18T14:07:36.504Z,7.50
2023-02-18T14:10:32.717Z,7.50
2023-02-18T14:12:59.618Z,7.40
2023-02-18T14:15:26.424Z,7.40
2023-02-18T14:17:59.156Z,7.50
2023-02-18T14:20:39.211Z,7.50
2023-02-18T14:23:38.368Z,7.50
2023-02-18T14:26:14.109Z,7.40
2023-02-18T14:28:46.895Z,7.40
2023-02-18T14:31:14.129Z,7.40
2023-02-18T14:33:50.289Z,7.30
2023-02-18T14:36:41.952Z,7.20
2023-02-18T14:39:09.268Z,7.20
2023-02-18T14:41:38.932Z,7.10
2023-02-18T14:44:36.102Z,7.00
2023-02-18T14:47:20.829Z,6.90
2023-02-18T14:49:57.834Z,6.90
2023-02-18T14:52:42.701Z,6.80
2023-02-18T14:55:23.878Z,6.80
2023-02-18T14:58:02.736Z,6.70
2023-02-18T15:00:39.016Z,6.60
2023-02-18T15:03:15.512Z,6.60
2023-02-18T15:05:44.575Z,6.50
2023-02-18T15:08:23.382Z,6.50
2023-02-18T15:11:00.903Z,6.50
2023-02-18T15:13:33.016Z,6.50
2023-02-18T15:16:06.613Z,6.60
2023-02-18T15:18:51.338Z,6.50
2023-02-18T15:21:27.856Z,6.50
2023-02-18T15:23:55.706Z,6.50
2023-02-18T15:26:22.675Z,6.50
2023-02-18T15:29:22.440Z,6.50
2023-02-18T15:31:50.379Z,6.40
2023-02-18T15:34:31.382Z,6.40
2023-02-18T15:37:01.640Z,6.40
2023-02-18T15:39:29.536Z,6.30
2023-02-18T15:42:02.813Z,6.30
2023-02-18T15:44:33.407Z,6.30
2023-02-18T15:47:08.526Z,6.30
2023-02-18T15:49:39.893Z,6.40
2023-02-18T15:52:09.122Z,6.40
2023-02-18T15:54:41.186Z,6.40
2023-02-18T15:57:14.966Z,6.30
2023-02-18T15:59:54.660Z,6.20
2023-02-18T16:02:24.987Z,6.00
2023-02-18T16:05:05.123Z,6.00
2023-02-18T16:07:51.397Z,5.90
2023-02-18T16:10:18.644Z,5.80
2023-02-18T16:12:51.050Z,5.70
2023-02-18T16:15:32.606Z,5.60
2023-02-18T16:18:00.246Z,5.50
2023-02-18T16:20:36.115Z,5.40
2023-02-18T16:23:15.243Z,5.50
2023-02-18T16:25:48.727Z,5.40
2023-02-18T16:28:31.708Z,5.40
2023-02-18T16:30:58.702Z,5.30
2023-02-18T16:33:25.607Z,5.30
2023-02-18T16:35:52.730Z,5.30
2023-02-18T16:38:24.641Z,5.20
2023-02-18T16:40:54.487Z,5.20
2023-02-18T16:43:25.489Z,5.20
2023-02-18T16:45:57.605Z,5.20
2023-02-18T16:48:33.893Z,5.20
2023-02-18T16:51:14.315Z,5.20
2023-02-18T16:53:41.360Z,5.10
2023-02-18T16:56:18.085Z,5.10
2023-02-18T16:58:45.301Z,5.00
2023-02-18T17:01:25.117Z,5.10
2023-02-18T17:03:53.417Z,5.00
2023-02-18T17:06:20.918Z,5.00
2023-02-18T17:08:48.727Z,5.00
2023-02-18T17:11:32.527Z,5.00
2023-02-18T17:13:59.962Z,5.00
2023-02-18T17:16:28.271Z,5.00
2023-02-18T17:18:55.161Z,5.00
2023-02-18T17:21:25.660Z,5.00
2023-02-18T17:23:53.075Z,5.00
2023-02-18T17:26:27.715Z,5.00
2023-02-18T17:28:57.640Z,5.10
2023-02-18T17:31:27.741Z,5.10
2023-02-18T17:33:59.754Z,5.20
2023-02-18T17:36:26.862Z,5.10
2023-02-18T17:38:53.990Z,5.10
2023-02-18T17:41:20.955Z,5.00
2023-02-18T17:43:47.937Z,5.00
2023-02-18T17:46:18.519Z,5.00
2023-02-18T17:48:47.259Z,4.90
2023-02-18T17:51:39.355Z,5.00
2023-02-18T17:54:16.880Z,4.80
2023-02-18T17:56:44.901Z,4.80
2023-02-18T17:59:12.627Z,4.80
2023-02-18T18:01:39.881Z,4.80
2023-02-18T18:04:18.134Z,4.80
2023-02-18T18:06:46.836Z,4.60
2023-02-18T18:09:14.080Z,4.60
2023-02-18T18:11:41.130Z,4.60
2023-02-18T18:14:10.778Z,4.60
2023-02-18T18:16:37.645Z,4.50
2023-02-18T18:19:04.506Z,4.50
2023-02-18T18:21:36.448Z,4.40
2023-02-18T18:24:04.364Z,4.40
2023-02-18T18:26:31.322Z,4.30
2023-02-18T18:28:58.296Z,4.30
2023-02-18T18:31:25.353Z,4.30
2023-02-18T18:33:53.055Z,4.30
2023-02-18T18:36:22.071Z,4.30
2023-02-18T18:38:49.130Z,4.30
2023-02-18T18:41:22.983Z,4.30
2023-02-18T18:43:50.770Z,4.30
2023-02-18T18:46:18.692Z,4.20
2023-02-18T18:48:46.148Z,4.20
2023-02-18T18:51:20.742Z,4.20
2023-02-18T18:53:47.675Z,4.30
2023-02-18T18:56:14.634Z,4.30
2023-02-18T18:58:41.655Z,4.30
2023-02-18T19:01:17.657Z,4.30
2023-02-18T19:03:46.583Z,4.30
2023-02-18T19:06:16.711Z,4.30
2023-02-18T19:08:45.654Z,4.20
2023-02-18T19:11:13.443Z,4.20
2023-02-18T19:13:40.766Z,4.20
2023-02-18T19:16:34.841Z,4.30
2023-02-18T19:19:01.873Z,4.30
2023-02-18T19:21:28.762Z,4.30
2023-02-18T19:23:55.753Z,4.30
2023-02-18T19:26:23.283Z,4.30
2023-02-18T19:28:50.125Z,4.20
2023-02-18T19:31:17.089Z,4.20
2023-02-18T19:33:46.808Z,4.20
2023-02-18T19:36:14.831Z,4.20
2023-02-18T19:38:41.796Z,4.10
2023-02-18T19:41:14.609Z,4.20
2023-02-18T19:43:43.955Z,4.20
2023-02-18T19:46:13.988Z,4.20
2023-02-18T19:48:41.962Z,4.10
2023-02-18T19:51:09.908Z,4.10
2023-02-18T19:53:37.410Z,4.10
2023-02-18T19:56:07.997Z,4.10
2023-02-18T19:58:36.315Z,4.10
2023-02-18T20:01:03.531Z,4.10
2023-02-18T20:03:30.491Z,4.10
2023-02-18T20:05:57.336Z,4.20
2023-02-18T20:08:24.317Z,4.20
2023-02-18T20:10:59.025Z,4.10
2023-02-18T20:13:27.059Z,4.10
2023-02-18T20:15:54.078Z,4.10
2023-02-18T20:18:22.336Z,4.10
2023-02-18T20:20:50.542Z,4.10
2023-02-18T20:23:17.943Z,4.10
2023-02-18T20:25:47.496Z,4.10
2023-02-18T20:28:14.859Z,4.10
2023-02-18T20:30:42.292Z,4.00
2023-02-18T20:33:09.234Z,4.10
2023-02-18T20:35:36.074Z,4.20
2023-02-18T20:38:02.999Z,4.10
2023-02-18T20:40:29.892Z,4.10
2023-02-18T20:42:56.842Z,4.10
2023-02-18T20:45:23.703Z,4.00
2023-02-18T20:47:50.608Z,4.10
2023-02-18T20:50:17.576Z,4.10
2023-02-18T20:52:44.419Z,4.10
2023-02-18T20:55:11.280Z,4.20
2023-02-18T20:57:38.207Z,4.20
2023-02-18T21:00:06.582Z,4.10
2023-02-18T21:02:33.479Z,4.00
2023-02-18T21:05:00.285Z,4.10
2023-02-18T21:07:29.387Z,4.10
2023-02-18T21:09:56.236Z,4.10
2023-02-18T21:12:23.132Z,4.10
2023-02-18T21:14:49.980Z,4.10
2023-02-18T21:17:16.951Z,4.10
2023-02-18T21:19:43.810Z,4.20
2023-02-18T21:22:10.615Z,4.20
2023-02-18T21:24:37.538Z,4.20
2023-02-18T21:27:04.480Z,4.20
2023-02-18T21:29:32.308Z,4.30
2023-02-18T21:31:59.409Z,4.40
2023-02-18T21:34:26.366Z,4.40
2023-02-18T21:36:53.283Z,4.40
2023-02-18T21:39:20.171Z,4.50
2023-02-18T21:41:47.126Z,4.60
2023-02-18T21:44:13.989Z,4.50
2023-02-18T21:46:41.810Z,4.50
2023-02-18T21:49:10.645Z,4.50
2023-02-18T21:52:01.986Z,4.50
2023-02-18T21:54:39.324Z,4.60
2023-02-18T21:57:11.832Z,4.60
2023-02-18T21:59:39.979Z,4.60
2023-02-18T22:02:14.852Z,4.60
2023-02-18T22:04:41.811Z,4.60
2023-02-18T22:07:08.916Z,4.60
2023-02-18T22:09:36.776Z,4.70
2023-02-18T22:12:04.827Z,4.60
2023-02-18T22:14:32.209Z,4.60
2023-02-18T22:16:59.559Z,4.60
2023-02-18T22:19:26.507Z,4.60
2023-02-18T22:21:53.453Z,4.60
2023-02-18T22:24:20.398Z,4.50
2023-02-18T22:26:50.075Z,4.40
2023-02-18T22:29:19.652Z,4.50
2023-02-18T22:31:47.313Z,4.40
2023-02-18T22:34:14.266Z,4.30
2023-02-18T22:36:41.103Z,4.40
2023-02-18T22:39:08.916Z,4.40
2023-02-18T22:41:36.423Z,4.30
2023-02-18T22:44:07.167Z,4.30
2023-02-18T22:46:36.841Z,4.30
2023-02-18T22:49:06.345Z,4.30
2023-02-18T22:51:40.061Z,4.30
2023-02-18T22:54:11.720Z,4.20
2023-02-18T22:56:38.734Z,4.30
2023-02-18T22:59:05.630Z,4.20
2023-02-18T23:01:42.008Z,4.30
2023-02-18T23:04:14.960Z,4.10
2023-02-18T23:06:45.170Z,4.10
2023-02-18T23:09:24.757Z,4.10
2023-02-18T23:11:55.133Z,4.00
2023-02-18T23:14:22.475Z,3.90
2023-02-18T23:17:12.190Z,3.90
2023-02-18T23:19:48.047Z,3.80
2023-02-18T23:22:19.680Z,3.80
2023-02-18T23:24:47.247Z,3.90
2023-02-18T23:27:15.750Z,3.80
2023-02-18T23:29:43.092Z,3.80
2023-02-18T23:32:10.650Z,3.80
2023-02-18T23:34:38.539Z,3.90
2023-02-18T23:37:05.797Z,3.80
2023-02-18T23:39:33.599Z,3.70
2023-02-18T23:42:00.735Z,3.70
2023-02-18T23:44:28.181Z,3.60
2023-02-18T23:46:55.277Z,3.60
2023-02-18T23:49:25.973Z,3.70
2023-02-18T23:51:55.697Z,3.70
2023-02-18T23:54:23.560Z,3.60
2023-02-18T23:56:50.687Z,3.60
2023-02-18T23:59:17.634Z,3.60
